Strona główna
METAR-TAF:

METAR-TAF

Lotnisko :

Sanford Regional Airport

Sanford, Maine, Stany Zjednoczone

Szerokość geograficzna: 43-24N, Długość geograficzna: 070-43W, wysokość: 74 m

Aktualna obserwacja pogody

Raport powstał 37 minut temu, godzina 14:56 UTC
Wiatr 6 kt od południe
Temperatura 4°C
Wilgotność 75%
Ciśnienie 1016 hPa
Widzialność: 16.1 km
Zachmurzenie całkowite na wysokości 5500 ft

METAR: KSFM 171456Z AUTO 19006KT 10SM OVC055 04/00 A2999 RMK AO2 SLP160 6//// T00390000 51023 PNO $

czas: 10:33 (15:33 UTC)


TAF: brakujący

Obserwacja i prognoza pogody dla ponad 4000 lotnisk (raport METAR i TAF).

Dostępne stacje oznaczono żółtymi i czerwonymi punktami na mapie.

Najedź kursorem aby zobaczyć nazwę stacji.

Kliknij aby zobaczyć obserwacje i prognozy pogody.

Aby zmienić mapę: kliknij na zielony przycisk z czarnym krzyżykiem, aby powiększyć; na zielony przycisk z myślnikiem, aby pomniejszyć; na zielone strzałki, aby przejść do map sąsiednich.


METAR-TAF: